sensor_id;sensor_type;location;lat;lon;timestamp;temperature;humidity
25825;DHT22;13658;44.534;18.694;2023-02-28T00:00:29;2.40;99.90
25825;DHT22;13658;44.534;18.694;2023-02-28T00:02:55;2.40;99.90
25825;DHT22;13658;44.534;18.694;2023-02-28T00:05:26;2.40;99.90
25825;DHT22;13658;44.534;18.694;2023-02-28T00:07:52;2.30;99.90
25825;DHT22;13658;44.534;18.694;2023-02-28T00:10:27;2.30;99.90
25825;DHT22;13658;44.534;18.694;2023-02-28T00:12:54;2.30;99.90
25825;DHT22;13658;44.534;18.694;2023-02-28T00:15:23;2.30;99.90
25825;DHT22;13658;44.534;18.694;2023-02-28T00:17:49;2.30;99.90
25825;DHT22;13658;44.534;18.694;2023-02-28T00:20:15;2.30;99.90
25825;DHT22;13658;44.534;18.694;2023-02-28T00:22:44;2.30;99.90
25825;DHT22;13658;44.534;18.694;2023-02-28T00:25:15;2.30;99.90
25825;DHT22;13658;44.534;18.694;2023-02-28T00:27:41;2.30;99.90
25825;DHT22;13658;44.534;18.694;2023-02-28T00:30:13;2.30;99.90
25825;DHT22;13658;44.534;18.694;2023-02-28T00:32:40;2.40;99.90
25825;DHT22;13658;44.534;18.694;2023-02-28T00:35:07;2.30;99.90
25825;DHT22;13658;44.534;18.694;2023-02-28T00:37:33;2.30;99.90
25825;DHT22;13658;44.534;18.694;2023-02-28T00:39:59;2.20;99.90
25825;DHT22;13658;44.534;18.694;2023-02-28T00:42:26;2.20;99.90
25825;DHT22;13658;44.534;18.694;2023-02-28T00:44:52;2.30;99.90
25825;DHT22;13658;44.534;18.694;2023-02-28T00:47:18;2.30;99.90
25825;DHT22;13658;44.534;18.694;2023-02-28T00:49:44;2.30;99.90
25825;DHT22;13658;44.534;18.694;2023-02-28T00:52:10;2.30;99.90
25825;DHT22;13658;44.534;18.694;2023-02-28T00:54:36;2.30;99.90
25825;DHT22;13658;44.534;18.694;2023-02-28T00:57:02;2.40;99.90
25825;DHT22;13658;44.534;18.694;2023-02-28T00:59:28;2.30;99.90
25825;DHT22;13658;44.534;18.694;2023-02-28T01:01:54;2.30;99.90
25825;DHT22;13658;44.534;18.694;2023-02-28T01:04:21;2.40;99.90
25825;DHT22;13658;44.534;18.694;2023-02-28T01:06:47;2.40;99.90
25825;DHT22;13658;44.534;18.694;2023-02-28T01:09:13;2.30;99.90
25825;DHT22;13658;44.534;18.694;2023-02-28T01:11:41;2.30;99.90
25825;DHT22;13658;44.534;18.694;2023-02-28T01:14:13;2.30;99.90
25825;DHT22;13658;44.534;18.694;2023-02-28T01:16:39;2.40;99.90
25825;DHT22;13658;44.534;18.694;2023-02-28T01:19:05;2.40;99.90
25825;DHT22;13658;44.534;18.694;2023-02-28T01:21:31;2.40;99.90
25825;DHT22;13658;44.534;18.694;2023-02-28T01:23:58;2.40;99.90
25825;DHT22;13658;44.534;18.694;2023-02-28T01:26:24;2.40;99.90
25825;DHT22;13658;44.534;18.694;2023-02-28T01:28:51;2.40;99.90
25825;DHT22;13658;44.534;18.694;2023-02-28T01:31:19;2.40;99.90
25825;DHT22;13658;44.534;18.694;2023-02-28T01:33:45;2.40;99.90
25825;DHT22;13658;44.534;18.694;2023-02-28T01:36:20;2.40;99.90
25825;DHT22;13658;44.534;18.694;2023-02-28T01:38:46;2.40;99.90
25825;DHT22;13658;44.534;18.694;2023-02-28T01:41:21;2.40;99.90
25825;DHT22;13658;44.534;18.694;2023-02-28T01:46:15;2.40;99.90
25825;DHT22;13658;44.534;18.694;2023-02-28T01:48:54;2.30;99.90
25825;DHT22;13658;44.534;18.694;2023-02-28T01:51:26;2.40;99.90
25825;DHT22;13658;44.534;18.694;2023-02-28T01:54:05;2.40;99.90
25825;DHT22;13658;44.534;18.694;2023-02-28T01:56:46;2.40;99.90
25825;DHT22;13658;44.534;18.694;2023-02-28T01:59:20;2.40;99.90
25825;DHT22;13658;44.534;18.694;2023-02-28T02:01:46;2.40;99.90
25825;DHT22;13658;44.534;18.694;2023-02-28T02:04:12;2.40;99.90
25825;DHT22;13658;44.534;18.694;2023-02-28T02:06:44;2.30;99.90
25825;DHT22;13658;44.534;18.694;2023-02-28T02:09:12;2.30;99.90
25825;DHT22;13658;44.534;18.694;2023-02-28T02:11:40;2.30;99.90
25825;DHT22;13658;44.534;18.694;2023-02-28T02:25:24;2.20;99.90
25825;DHT22;13658;44.534;18.694;2023-02-28T02:28:28;2.20;99.90
25825;DHT22;13658;44.534;18.694;2023-02-28T02:36:23;2.10;99.90
25825;DHT22;13658;44.534;18.694;2023-02-28T02:38:52;2.10;99.90
25825;DHT22;13658;44.534;18.694;2023-02-28T02:44:01;2.00;99.90
25825;DHT22;13658;44.534;18.694;2023-02-28T02:46:38;2.10;99.90
25825;DHT22;13658;44.534;18.694;2023-02-28T02:49:10;2.10;99.90
25825;DHT22;13658;44.534;18.694;2023-02-28T02:51:39;2.10;99.90
25825;DHT22;13658;44.534;18.694;2023-02-28T02:54:20;2.10;99.90
25825;DHT22;13658;44.534;18.694;2023-02-28T02:56:49;2.00;99.90
25825;DHT22;13658;44.534;18.694;2023-02-28T02:59:20;2.00;99.90
25825;DHT22;13658;44.534;18.694;2023-02-28T03:01:59;2.10;99.90
25825;DHT22;13658;44.534;18.694;2023-02-28T03:04:31;2.00;99.90
25825;DHT22;13658;44.534;18.694;2023-02-28T03:06:59;2.10;99.90
25825;DHT22;13658;44.534;18.694;2023-02-28T03:09:25;2.10;99.90
25825;DHT22;13658;44.534;18.694;2023-02-28T03:11:53;2.10;99.90
25825;DHT22;13658;44.534;18.694;2023-02-28T03:17:29;2.00;99.90
25825;DHT22;13658;44.534;18.694;2023-02-28T03:28:23;2.20;99.90
25825;DHT22;13658;44.534;18.694;2023-02-28T03:30:58;2.10;99.90
25825;DHT22;13658;44.534;18.694;2023-02-28T03:33:39;2.10;99.90
25825;DHT22;13658;44.534;18.694;2023-02-28T03:36:17;2.10;99.90
25825;DHT22;13658;44.534;18.694;2023-02-28T03:39:05;2.10;99.90
25825;DHT22;13658;44.534;18.694;2023-02-28T03:41:47;2.00;99.90
25825;DHT22;13658;44.534;18.694;2023-02-28T03:44:41;2.10;99.90
25825;DHT22;13658;44.534;18.694;2023-02-28T03:47:17;2.00;99.90
25825;DHT22;13658;44.534;18.694;2023-02-28T03:52:40;2.10;99.90
25825;DHT22;13658;44.534;18.694;2023-02-28T03:55:11;2.10;99.90
25825;DHT22;13658;44.534;18.694;2023-02-28T04:00:30;2.10;99.90
25825;DHT22;13658;44.534;18.694;2023-02-28T04:02:57;2.10;99.90
25825;DHT22;13658;44.534;18.694;2023-02-28T04:05:23;2.10;99.90
25825;DHT22;13658;44.534;18.694;2023-02-28T04:07:49;2.10;99.90
25825;DHT22;13658;44.534;18.694;2023-02-28T04:10:16;2.10;99.90
25825;DHT22;13658;44.534;18.694;2023-02-28T04:12:42;2.10;99.90
25825;DHT22;13658;44.534;18.694;2023-02-28T04:15:08;2.00;99.90
25825;DHT22;13658;44.534;18.694;2023-02-28T04:17:36;2.10;99.90
25825;DHT22;13658;44.534;18.694;2023-02-28T04:20:02;2.10;99.90
25825;DHT22;13658;44.534;18.694;2023-02-28T04:22:29;2.10;99.90
25825;DHT22;13658;44.534;18.694;2023-02-28T04:24:55;2.10;99.90
25825;DHT22;13658;44.534;18.694;2023-02-28T04:27:21;2.10;99.90
25825;DHT22;13658;44.534;18.694;2023-02-28T04:29:47;2.10;99.90
25825;DHT22;13658;44.534;18.694;2023-02-28T04:32:13;2.10;99.90
25825;DHT22;13658;44.534;18.694;2023-02-28T04:34:40;2.00;99.90
25825;DHT22;13658;44.534;18.694;2023-02-28T04:37:06;2.00;99.90
25825;DHT22;13658;44.534;18.694;2023-02-28T04:39:35;1.90;99.90
25825;DHT22;13658;44.534;18.694;2023-02-28T04:42:01;1.90;99.90
25825;DHT22;13658;44.534;18.694;2023-02-28T04:44:27;1.80;99.90
25825;DHT22;13658;44.534;18.694;2023-02-28T04:46:53;1.80;99.90
25825;DHT22;13658;44.534;18.694;2023-02-28T04:49:19;1.80;99.90
25825;DHT22;13658;44.534;18.694;2023-02-28T04:51:45;1.80;99.90
25825;DHT22;13658;44.534;18.694;2023-02-28T04:54:11;1.80;99.90
25825;DHT22;13658;44.534;18.694;2023-02-28T04:56:39;1.80;99.90
25825;DHT22;13658;44.534;18.694;2023-02-28T04:59:05;1.80;99.90
25825;DHT22;13658;44.534;18.694;2023-02-28T05:01:33;1.80;99.90
25825;DHT22;13658;44.534;18.694;2023-02-28T05:04:01;1.80;99.90
25825;DHT22;13658;44.534;18.694;2023-02-28T05:06:29;1.90;99.90
25825;DHT22;13658;44.534;18.694;2023-02-28T05:08:56;1.90;99.90
25825;DHT22;13658;44.534;18.694;2023-02-28T05:11:30;1.80;99.90
25825;DHT22;13658;44.534;18.694;2023-02-28T05:14:05;1.80;99.90
25825;DHT22;13658;44.534;18.694;2023-02-28T05:16:32;1.80;99.90
25825;DHT22;13658;44.534;18.694;2023-02-28T05:18:58;1.80;99.90
25825;DHT22;13658;44.534;18.694;2023-02-28T05:21:28;1.90;99.90
25825;DHT22;13658;44.534;18.694;2023-02-28T05:23:55;1.90;99.90
25825;DHT22;13658;44.534;18.694;2023-02-28T05:26:22;1.90;99.90
25825;DHT22;13658;44.534;18.694;2023-02-28T05:28:49;1.90;99.90
25825;DHT22;13658;44.534;18.694;2023-02-28T05:31:15;1.90;99.90
25825;DHT22;13658;44.534;18.694;2023-02-28T05:33:41;1.90;99.90
25825;DHT22;13658;44.534;18.694;2023-02-28T05:36:07;1.90;99.90
25825;DHT22;13658;44.534;18.694;2023-02-28T05:38:33;1.90;99.90
25825;DHT22;13658;44.534;18.694;2023-02-28T05:40:59;1.90;99.90
25825;DHT22;13658;44.534;18.694;2023-02-28T05:43:25;1.90;99.90
25825;DHT22;13658;44.534;18.694;2023-02-28T05:45:51;1.90;99.90
25825;DHT22;13658;44.534;18.694;2023-02-28T05:48:16;1.90;99.90
25825;DHT22;13658;44.534;18.694;2023-02-28T05:50:43;1.90;99.90
25825;DHT22;13658;44.534;18.694;2023-02-28T05:53:11;2.00;99.90
25825;DHT22;13658;44.534;18.694;2023-02-28T05:55:37;2.00;99.90
25825;DHT22;13658;44.534;18.694;2023-02-28T05:58:03;1.90;99.90
25825;DHT22;13658;44.534;18.694;2023-02-28T06:00:29;1.90;99.90
25825;DHT22;13658;44.534;18.694;2023-02-28T06:02:55;2.00;99.90
25825;DHT22;13658;44.534;18.694;2023-02-28T06:05:23;2.10;99.90
25825;DHT22;13658;44.534;18.694;2023-02-28T06:07:50;2.10;99.90
25825;DHT22;13658;44.534;18.694;2023-02-28T06:10:16;2.20;99.90
25825;DHT22;13658;44.534;18.694;2023-02-28T06:12:42;2.20;99.90
25825;DHT22;13658;44.534;18.694;2023-02-28T06:15:12;2.30;99.90
25825;DHT22;13658;44.534;18.694;2023-02-28T06:17:43;2.30;99.90
25825;DHT22;13658;44.534;18.694;2023-02-28T06:20:11;2.30;99.90
25825;DHT22;13658;44.534;18.694;2023-02-28T06:22:39;2.30;99.90
25825;DHT22;13658;44.534;18.694;2023-02-28T06:25:06;2.30;99.90
25825;DHT22;13658;44.534;18.694;2023-02-28T06:27:33;2.40;99.90
25825;DHT22;13658;44.534;18.694;2023-02-28T06:29:59;2.30;99.90
25825;DHT22;13658;44.534;18.694;2023-02-28T06:32:25;2.40;99.90
25825;DHT22;13658;44.534;18.694;2023-02-28T06:34:52;2.40;99.90
25825;DHT22;13658;44.534;18.694;2023-02-28T06:37:18;2.50;99.90
25825;DHT22;13658;44.534;18.694;2023-02-28T06:39:44;2.60;99.90
25825;DHT22;13658;44.534;18.694;2023-02-28T06:42:10;2.50;99.90
25825;DHT22;13658;44.534;18.694;2023-02-28T06:44:36;2.50;99.90
